createdAt,value
2019-06-26T00:02:14.352Z,8.23
2019-06-26T00:04:46.081Z,8.38
2019-06-26T00:07:17.936Z,8.00
2019-06-26T00:09:49.672Z,8.38
2019-06-26T00:12:21.421Z,8.55
2019-06-26T00:14:53.228Z,8.28
2019-06-26T00:17:24.947Z,9.08
2019-06-26T00:19:56.764Z,8.03
2019-06-26T00:22:28.660Z,9.05
2019-06-26T00:25:00.396Z,9.00
2019-06-26T00:27:32.198Z,8.87
2019-06-26T00:30:04.152Z,7.70
2019-06-26T00:32:35.957Z,8.45
2019-06-26T00:35:07.915Z,9.30
2019-06-26T00:37:39.706Z,8.10
2019-06-26T00:40:12.216Z,8.33
2019-06-26T00:42:44.028Z,9.23
2019-06-26T00:45:15.941Z,8.87
2019-06-26T00:47:47.645Z,9.20
2019-06-26T00:50:19.572Z,9.10
2019-06-26T00:52:51.383Z,9.88
2019-06-26T00:55:23.120Z,9.73
2019-06-26T00:57:55.023Z,9.33
2019-06-26T01:00:33.222Z,9.13
2019-06-26T01:03:04.929Z,9.37
2019-06-26T01:05:36.651Z,9.37
2019-06-26T01:08:08.494Z,9.13
2019-06-26T01:10:40.490Z,9.78
2019-06-26T01:13:12.275Z,10.37
2019-06-26T01:15:44.027Z,9.70
2019-06-26T01:18:15.836Z,10.33
2019-06-26T01:20:47.770Z,10.05
2019-06-26T01:23:19.485Z,10.87
2019-06-26T01:25:51.307Z,10.07
2019-06-26T01:28:23.008Z,10.57
2019-06-26T01:30:54.719Z,10.43
2019-06-26T01:33:26.438Z,10.30
2019-06-26T01:35:58.173Z,16.67
2019-06-26T01:38:29.973Z,11.07
2019-06-26T01:41:01.735Z,9.73
2019-06-26T01:43:33.565Z,11.03
2019-06-26T01:46:05.360Z,10.55
2019-06-26T01:48:37.096Z,10.30
2019-06-26T01:51:08.815Z,10.10
2019-06-26T01:53:40.512Z,11.00
2019-06-26T01:56:12.223Z,10.80
2019-06-26T01:58:43.937Z,11.00
2019-06-26T02:01:15.737Z,11.23
2019-06-26T02:03:47.605Z,11.20
2019-06-26T02:06:19.514Z,11.00
2019-06-26T02:08:51.316Z,11.53
2019-06-26T02:11:23.276Z,12.03
2019-06-26T02:13:55.040Z,12.17
2019-06-26T02:16:26.921Z,12.33
2019-06-26T02:19:01.169Z,11.90
2019-06-26T02:21:33.092Z,12.20
2019-06-26T02:24:04.796Z,12.17
2019-06-26T02:26:36.801Z,12.40
2019-06-26T02:29:08.600Z,12.07
2019-06-26T02:31:40.512Z,12.50
2019-06-26T02:34:12.218Z,11.97
2019-06-26T02:36:43.941Z,11.37
2019-06-26T02:39:15.636Z,12.53
2019-06-26T02:41:47.369Z,13.80
2019-06-26T02:44:19.080Z,12.88
2019-06-26T02:46:50.894Z,13.60
2019-06-26T02:49:22.709Z,14.17
2019-06-26T02:51:54.436Z,13.50
2019-06-26T02:54:26.146Z,12.00
2019-06-26T02:56:58.057Z,13.90
2019-06-26T02:59:29.762Z,13.37
2019-06-26T03:02:01.469Z,14.25
2019-06-26T03:04:33.286Z,13.78
2019-06-26T03:07:05.221Z,14.53
2019-06-26T03:09:36.913Z,13.78
2019-06-26T03:12:08.634Z,14.40
2019-06-26T03:14:40.435Z,15.23
2019-06-26T03:17:12.145Z,14.43
2019-06-26T03:19:43.948Z,15.60
2019-06-26T03:22:15.675Z,14.00
2019-06-26T03:24:47.393Z,16.15
2019-06-26T03:27:19.211Z,16.17
2019-06-26T03:29:50.941Z,16.07
2019-06-26T03:32:22.694Z,15.10
2019-06-26T03:34:54.530Z,14.38
2019-06-26T03:37:26.253Z,14.95
2019-06-26T03:39:57.956Z,14.78
2019-06-26T03:42:29.681Z,15.50
2019-06-26T03:45:01.643Z,15.72
2019-06-26T03:47:33.619Z,16.30
2019-06-26T03:50:06.144Z,16.35
2019-06-26T03:52:37.959Z,16.42
2019-06-26T03:55:09.849Z,17.25
2019-06-26T03:57:41.605Z,15.93
2019-06-26T04:00:14.703Z,16.10
2019-06-26T04:02:46.497Z,16.00
2019-06-26T04:05:18.197Z,16.05
2019-06-26T04:07:50.072Z,16.20
2019-06-26T04:10:21.772Z,16.15
2019-06-26T04:12:53.608Z,16.25
2019-06-26T04:15:40.945Z,15.13
2019-06-26T04:17:59.040Z,16.97
2019-06-26T04:20:30.851Z,16.37
2019-06-26T04:23:02.608Z,16.25
2019-06-26T04:25:36.085Z,16.90
2019-06-26T04:28:08.243Z,16.45
2019-06-26T04:30:39.973Z,15.90
2019-06-26T04:33:11.769Z,16.82
2019-06-26T04:35:43.484Z,16.73
2019-06-26T04:38:15.183Z,16.00
2019-06-26T04:40:46.880Z,16.70
2019-06-26T04:43:18.599Z,16.73
2019-06-26T04:45:58.233Z,16.45
2019-06-26T04:48:24.092Z,16.85
2019-06-26T04:50:55.919Z,15.95
2019-06-26T04:53:27.647Z,18.05
2019-06-26T04:55:59.335Z,16.65
2019-06-26T04:58:31.057Z,16.42
2019-06-26T05:01:03.057Z,16.12
2019-06-26T05:03:34.861Z,15.70
2019-06-26T05:06:06.664Z,15.65
2019-06-26T05:08:38.428Z,16.42
2019-06-26T05:11:12.625Z,16.45
2019-06-26T05:13:43.794Z,16.95
2019-06-26T05:16:19.261Z,16.90
2019-06-26T05:18:49.367Z,16.45
2019-06-26T05:21:21.055Z,15.98
2019-06-26T05:23:52.763Z,17.00
2019-06-26T05:26:24.469Z,15.63
2019-06-26T05:28:56.224Z,15.93
2019-06-26T05:31:28.041Z,15.72
2019-06-26T05:33:59.859Z,15.10
2019-06-26T05:36:31.660Z,14.83
2019-06-26T05:39:05.362Z,16.30
2019-06-26T05:41:37.058Z,14.93
2019-06-26T05:44:08.773Z,14.58
2019-06-26T05:46:40.500Z,15.88
2019-06-26T05:49:12.321Z,15.70
2019-06-26T05:51:44.035Z,15.53
2019-06-26T05:54:15.751Z,15.85
2019-06-26T05:56:47.488Z,15.85
2019-06-26T05:59:19.260Z,15.78
2019-06-26T06:01:50.962Z,15.85
2019-06-26T06:04:22.674Z,15.88
2019-06-26T06:06:54.355Z,15.18
2019-06-26T06:09:26.203Z,15.50
2019-06-26T06:11:57.913Z,14.63
2019-06-26T06:14:29.626Z,12.50
2019-06-26T06:17:01.335Z,14.60
2019-06-26T06:19:33.064Z,14.50
2019-06-26T06:22:04.771Z,14.65
2019-06-26T06:24:36.639Z,15.32
2019-06-26T06:27:08.497Z,13.40
2019-06-26T06:29:40.242Z,14.73
2019-06-26T06:32:12.060Z,13.90
2019-06-26T06:34:43.897Z,14.18
2019-06-26T06:37:16.339Z,13.88
2019-06-26T06:39:48.087Z,13.00
2019-06-26T06:42:19.880Z,12.82
2019-06-26T06:44:51.607Z,11.63
2019-06-26T06:47:23.516Z,13.35
2019-06-26T06:49:55.424Z,12.63
2019-06-26T06:52:27.116Z,13.05
2019-06-26T06:54:58.864Z,11.15
2019-06-26T06:57:30.571Z,10.88
2019-06-26T07:00:02.507Z,10.95
2019-06-26T07:02:34.200Z,10.70
2019-06-26T07:05:06.026Z,10.40
2019-06-26T07:07:37.731Z,10.90
2019-06-26T07:10:09.807Z,10.45
2019-06-26T07:12:41.692Z,9.65
2019-06-26T07:15:15.454Z,9.50
2019-06-26T07:17:47.241Z,10.45
2019-06-26T07:20:19.167Z,10.15
2019-06-26T07:22:50.868Z,10.38
2019-06-26T07:25:22.576Z,8.75
2019-06-26T07:27:54.275Z,9.18
2019-06-26T07:30:26.090Z,9.75
2019-06-26T07:32:57.812Z,9.13
2019-06-26T07:35:29.617Z,9.23
2019-06-26T07:38:01.429Z,8.25
2019-06-26T07:40:33.145Z,8.80
2019-06-26T07:43:04.858Z,9.50
2019-06-26T07:45:36.623Z,8.33
2019-06-26T07:48:08.346Z,9.53
2019-06-26T07:50:40.183Z,9.03
2019-06-26T07:53:11.872Z,8.18
2019-06-26T07:55:43.596Z,7.35
2019-06-26T07:58:15.309Z,8.13
2019-06-26T08:00:47.073Z,7.83
2019-06-26T08:03:18.860Z,7.97
2019-06-26T08:05:50.799Z,8.03
2019-06-26T08:08:22.595Z,7.62
2019-06-26T08:10:54.972Z,7.58
2019-06-26T08:13:26.790Z,7.62
2019-06-26T08:15:58.632Z,8.03
2019-06-26T08:18:30.357Z,7.20
2019-06-26T08:21:12.178Z,7.90
2019-06-26T08:23:35.859Z,7.58
2019-06-26T08:26:07.577Z,7.78
2019-06-26T08:28:39.334Z,7.55
2019-06-26T08:31:11.252Z,7.05
2019-06-26T08:33:42.956Z,7.33
2019-06-26T08:36:14.718Z,7.47
2019-06-26T08:38:46.538Z,8.55
2019-06-26T08:41:18.250Z,7.58
2019-06-26T08:43:49.954Z,6.85
2019-06-26T08:46:21.679Z,9.78
2019-06-26T08:48:53.372Z,7.60
2019-06-26T08:51:25.103Z,7.45
2019-06-26T08:53:56.807Z,7.12
2019-06-26T08:56:28.577Z,7.30
2019-06-26T08:59:00.343Z,7.42
2019-06-26T09:01:32.191Z,7.08
2019-06-26T09:04:03.979Z,7.20
2019-06-26T09:06:35.825Z,7.67
2019-06-26T09:09:07.741Z,7.12
2019-06-26T09:11:39.684Z,6.62
2019-06-26T09:14:11.389Z,7.10
2019-06-26T09:16:43.202Z,7.40
2019-06-26T09:19:14.913Z,7.67
2019-06-26T09:21:46.679Z,7.22
2019-06-26T09:24:18.459Z,7.15
2019-06-26T09:26:50.205Z,7.58
2019-06-26T09:29:23.998Z,7.33
2019-06-26T09:31:55.581Z,8.35
2019-06-26T09:34:27.386Z,7.53
2019-06-26T09:36:59.108Z,7.20
2019-06-26T09:39:31.086Z,7.03
2019-06-26T09:42:03.011Z,7.12
2019-06-26T09:44:34.704Z,7.05
2019-06-26T09:47:06.420Z,6.62
2019-06-26T09:49:38.128Z,6.17
2019-06-26T09:52:09.848Z,7.30
2019-06-26T09:54:41.649Z,7.05
2019-06-26T09:57:13.483Z,7.25
2019-06-26T09:59:45.220Z,6.90
2019-06-26T10:02:16.948Z,6.78
2019-06-26T10:04:48.653Z,7.17
2019-06-26T10:07:20.392Z,6.67
2019-06-26T10:09:52.088Z,7.00
2019-06-26T10:12:23.975Z,6.97
2019-06-26T10:14:55.841Z,6.67
2019-06-26T10:17:27.646Z,6.60
2019-06-26T10:19:59.437Z,6.37
2019-06-26T10:22:31.145Z,6.53
2019-06-26T10:25:03.710Z,6.90
2019-06-26T10:27:35.643Z,6.60
2019-06-26T10:30:07.983Z,6.53
2019-06-26T10:32:39.765Z,6.37
2019-06-26T10:35:11.702Z,5.72
2019-06-26T10:37:43.439Z,6.85
2019-06-26T10:40:16.620Z,6.30
2019-06-26T10:42:49.172Z,6.17
2019-06-26T10:45:21.011Z,6.10
2019-06-26T10:47:52.803Z,7.15
2019-06-26T10:50:24.507Z,6.10
2019-06-26T10:52:56.244Z,6.78
2019-06-26T10:55:28.142Z,6.30
2019-06-26T10:57:59.876Z,6.25
2019-06-26T11:00:32.001Z,5.95
2019-06-26T11:03:03.914Z,5.70
2019-06-26T11:05:35.704Z,6.35
2019-06-26T11:08:07.428Z,6.37
2019-06-26T11:10:39.196Z,5.95
2019-06-26T11:13:10.975Z,6.22
2019-06-26T11:15:42.680Z,6.20
2019-06-26T11:18:14.394Z,7.10
2019-06-26T11:20:46.101Z,6.20
2019-06-26T11:23:17.928Z,6.62
2019-06-26T11:25:49.825Z,6.10
2019-06-26T11:28:21.535Z,7.15
2019-06-26T11:30:53.301Z,6.73
2019-06-26T11:33:25.124Z,7.17
2019-06-26T11:35:56.909Z,6.10
2019-06-26T11:38:28.628Z,6.90
2019-06-26T11:41:01.981Z,6.33
2019-06-26T11:43:33.962Z,6.12
2019-06-26T11:46:05.757Z,6.08
2019-06-26T11:48:37.488Z,6.00
2019-06-26T11:51:09.229Z,6.33
2019-06-26T11:53:40.994Z,6.08
2019-06-26T11:56:12.703Z,6.55
2019-06-26T11:58:44.566Z,6.58
2019-06-26T12:01:16.464Z,6.85
2019-06-26T12:03:48.663Z,6.42
2019-06-26T12:06:20.483Z,6.12
2019-06-26T12:08:52.187Z,6.20
2019-06-26T12:11:23.993Z,6.17
2019-06-26T12:13:55.710Z,6.20
2019-06-26T12:16:27.403Z,6.25
2019-06-26T12:18:59.119Z,6.67
2019-06-26T12:21:30.835Z,6.35
2019-06-26T12:24:02.747Z,6.20
2019-06-26T12:26:34.424Z,6.17
2019-06-26T12:29:06.186Z,6.62
2019-06-26T12:31:38.087Z,8.58
2019-06-26T12:34:09.879Z,7.25
2019-06-26T12:36:41.616Z,6.95
2019-06-26T12:39:13.447Z,7.00
2019-06-26T12:41:45.160Z,6.83
2019-06-26T12:44:16.883Z,6.80
2019-06-26T12:46:48.592Z,6.40
2019-06-26T12:49:20.415Z,6.53
2019-06-26T12:51:52.126Z,6.30
2019-06-26T12:54:23.850Z,6.85
2019-06-26T12:56:55.547Z,6.80
2019-06-26T12:59:27.317Z,7.65
2019-06-26T13:01:59.196Z,6.35
2019-06-26T13:04:30.928Z,6.60
2019-06-26T13:07:02.827Z,6.53
2019-06-26T13:09:34.590Z,6.80
2019-06-26T13:12:06.292Z,6.75
2019-06-26T13:14:38.116Z,7.75
2019-06-26T13:17:09.855Z,7.83
2019-06-26T13:19:41.668Z,6.78
2019-06-26T13:22:13.381Z,7.08
2019-06-26T13:24:45.210Z,6.53
2019-06-26T13:27:16.903Z,7.62
2019-06-26T13:29:48.644Z,9.30
2019-06-26T13:32:20.352Z,7.72
2019-06-26T13:34:52.069Z,7.42
2019-06-26T13:37:23.761Z,7.35
2019-06-26T13:39:55.564Z,7.92
2019-06-26T13:42:27.360Z,8.13
2019-06-26T13:44:59.199Z,7.87
2019-06-26T13:47:30.982Z,9.13
2019-06-26T13:50:03.124Z,7.90
2019-06-26T13:52:34.995Z,7.97
2019-06-26T13:55:06.921Z,8.83
2019-06-26T13:57:38.620Z,8.33
2019-06-26T14:00:10.756Z,7.60
2019-06-26T14:02:42.660Z,7.55
2019-06-26T14:05:14.656Z,7.62
2019-06-26T14:07:46.464Z,7.37
2019-06-26T14:10:18.316Z,8.68
2019-06-26T14:12:50.005Z,6.95
2019-06-26T14:15:22.019Z,7.47
2019-06-26T14:17:53.916Z,7.47
2019-06-26T14:20:25.637Z,6.97
2019-06-26T14:22:57.347Z,7.15
2019-06-26T14:25:29.099Z,6.70
2019-06-26T14:28:00.886Z,6.90
2019-06-26T14:30:32.643Z,7.25
2019-06-26T14:33:04.365Z,7.42
2019-06-26T14:35:36.121Z,7.30
2019-06-26T14:38:07.916Z,7.30
2019-06-26T14:40:39.666Z,7.42
2019-06-26T14:43:11.447Z,7.80
2019-06-26T14:45:43.257Z,7.70
2019-06-26T14:48:14.960Z,8.10
2019-06-26T14:50:46.795Z,7.22
2019-06-26T14:53:18.607Z,9.10
2019-06-26T14:55:50.404Z,8.78
2019-06-26T14:58:22.092Z,7.87
2019-06-26T15:00:53.811Z,8.88
2019-06-26T15:03:25.612Z,7.83
2019-06-26T15:05:57.427Z,7.72
2019-06-26T15:08:29.148Z,6.78
2019-06-26T15:11:00.868Z,6.80
2019-06-26T15:13:32.580Z,6.90
2019-06-26T15:16:04.348Z,6.47
2019-06-26T15:18:36.062Z,6.87
2019-06-26T15:21:08.086Z,6.45
2019-06-26T15:23:39.866Z,7.37
2019-06-26T15:26:11.588Z,9.00
2019-06-26T15:28:43.288Z,8.88
2019-06-26T15:31:15.254Z,9.23
2019-06-26T15:33:46.962Z,7.67
2019-06-26T15:36:18.695Z,7.15
2019-06-26T15:38:50.503Z,7.83
2019-06-26T15:41:22.244Z,6.25
2019-06-26T15:43:53.949Z,6.40
2019-06-26T15:46:25.665Z,7.20
2019-06-26T15:48:57.384Z,5.92
2019-06-26T15:51:29.221Z,6.30
2019-06-26T15:54:00.929Z,6.03
2019-06-26T15:56:32.654Z,5.95
2019-06-26T15:59:04.436Z,6.55
2019-06-26T16:01:36.183Z,6.53
2019-06-26T16:04:07.885Z,5.40
2019-06-26T16:06:39.705Z,5.85
2019-06-26T16:09:11.429Z,6.15
2019-06-26T16:11:43.243Z,5.58
2019-06-26T16:14:14.941Z,5.62
2019-06-26T16:16:48.579Z,6.37
2019-06-26T16:19:21.224Z,6.10
2019-06-26T16:21:53.033Z,6.00
2019-06-26T16:24:24.837Z,6.87
2019-06-26T16:26:56.568Z,5.65
2019-06-26T16:29:28.287Z,5.70
2019-06-26T16:32:00.121Z,6.65
2019-06-26T16:34:31.914Z,6.05
2019-06-26T16:37:03.657Z,6.17
2019-06-26T16:39:35.354Z,7.45
2019-06-26T16:42:07.081Z,8.05
2019-06-26T16:44:38.797Z,7.47
2019-06-26T16:47:10.633Z,6.90
2019-06-26T16:49:42.337Z,5.90
2019-06-26T16:52:14.086Z,5.92
2019-06-26T16:54:45.987Z,5.60
2019-06-26T16:57:17.817Z,6.42
2019-06-26T16:59:49.589Z,7.17
2019-06-26T17:02:21.502Z,6.20
2019-06-26T17:04:53.305Z,6.05
2019-06-26T17:07:25.036Z,5.30
2019-06-26T17:09:56.760Z,6.08
2019-06-26T17:12:28.565Z,5.58
2019-06-26T17:15:03.999Z,5.60
2019-06-26T17:17:34.002Z,5.75
2019-06-26T17:20:06.760Z,5.47
2019-06-26T17:22:38.775Z,5.42
2019-06-26T17:25:11.097Z,5.25
2019-06-26T17:27:42.854Z,5.33
2019-06-26T17:30:14.938Z,4.95
2019-06-26T17:32:46.769Z,5.20
2019-06-26T17:35:18.463Z,5.10
2019-06-26T17:37:50.196Z,5.10
2019-06-26T17:40:22.222Z,4.80
2019-06-26T17:42:54.026Z,5.40
2019-06-26T17:45:25.917Z,4.15
2019-06-26T17:47:57.649Z,5.37
2019-06-26T17:50:29.350Z,5.22
2019-06-26T17:53:01.069Z,4.72
2019-06-26T17:55:32.776Z,4.55
2019-06-26T17:58:04.618Z,4.12
2019-06-26T18:00:36.521Z,4.28
2019-06-26T18:03:08.352Z,4.28
2019-06-26T18:05:40.764Z,4.22
2019-06-26T18:08:12.588Z,4.65
2019-06-26T18:10:44.398Z,3.77
2019-06-26T18:13:16.166Z,4.50
2019-06-26T18:15:47.897Z,3.77
2019-06-26T18:18:19.756Z,3.80
2019-06-26T18:20:51.458Z,4.67
2019-06-26T18:23:36.743Z,4.12
2019-06-26T18:26:11.768Z,4.28
2019-06-26T18:28:30.452Z,4.67
2019-06-26T18:31:02.351Z,4.50
2019-06-26T18:33:34.155Z,5.00
2019-06-26T18:36:06.052Z,5.37
2019-06-26T18:38:37.804Z,5.12
2019-06-26T18:41:09.518Z,4.53
2019-06-26T18:43:41.384Z,4.75
2019-06-26T18:46:13.189Z,4.50
2019-06-26T18:48:44.928Z,4.47
2019-06-26T18:51:16.742Z,4.70
2019-06-26T18:53:53.525Z,4.65
2019-06-26T18:56:22.314Z,4.80
2019-06-26T18:58:54.089Z,4.75
2019-06-26T19:01:25.913Z,4.83
2019-06-26T19:03:57.772Z,4.60
2019-06-26T19:06:29.557Z,5.35
2019-06-26T19:09:01.353Z,4.92
2019-06-26T19:11:33.148Z,4.35
2019-06-26T19:14:04.880Z,4.35
2019-06-26T19:16:36.683Z,4.47
2019-06-26T19:19:12.012Z,4.15
2019-06-26T19:21:42.108Z,4.92
2019-06-26T19:24:13.914Z,5.25
2019-06-26T19:26:45.645Z,5.30
2019-06-26T19:29:17.413Z,4.70
2019-06-26T19:31:49.222Z,4.50
2019-06-26T19:34:21.033Z,5.05
2019-06-26T19:36:52.837Z,4.53
2019-06-26T19:39:24.562Z,5.30
2019-06-26T19:41:56.270Z,4.70
2019-06-26T19:44:28.128Z,4.72
2019-06-26T19:46:59.947Z,4.55
2019-06-26T19:49:31.781Z,4.10
2019-06-26T19:52:03.628Z,4.45
2019-06-26T19:54:35.449Z,4.35
2019-06-26T19:57:07.160Z,4.53
2019-06-26T19:59:38.909Z,4.67
2019-06-26T20:02:10.628Z,3.92
2019-06-26T20:04:42.356Z,4.30
2019-06-26T20:07:14.156Z,4.28
2019-06-26T20:09:45.984Z,3.70
2019-06-26T20:12:17.705Z,4.00
2019-06-26T20:14:49.520Z,4.08
2019-06-26T20:17:21.239Z,3.87
2019-06-26T20:19:53.066Z,3.90
2019-06-26T20:22:24.771Z,3.80
2019-06-26T20:24:57.491Z,3.85
2019-06-26T20:27:29.331Z,3.85
2019-06-26T20:30:01.268Z,3.70
2019-06-26T20:32:33.008Z,3.83
2019-06-26T20:35:06.091Z,3.77
2019-06-26T20:37:37.891Z,4.00
2019-06-26T20:40:10.508Z,4.20
2019-06-26T20:42:42.347Z,4.35
2019-06-26T20:45:16.177Z,4.37
2019-06-26T20:47:47.890Z,3.95
2019-06-26T20:50:19.623Z,3.75
2019-06-26T20:52:51.336Z,4.12
2019-06-26T20:55:23.185Z,3.40
2019-06-26T21:00:26.472Z,4.10
2019-06-26T21:02:58.298Z,4.12
2019-06-26T21:05:30.108Z,3.22
2019-06-26T21:08:01.910Z,3.00
2019-06-26T21:10:33.759Z,3.33
2019-06-26T21:13:05.548Z,3.20
2019-06-26T21:15:37.276Z,3.22
2019-06-26T21:18:08.972Z,3.75
2019-06-26T21:20:40.713Z,3.27
2019-06-26T21:23:18.531Z,3.10
2019-06-26T21:25:46.140Z,2.90
2019-06-26T21:28:17.848Z,3.05
2019-06-26T21:30:49.711Z,3.10
2019-06-26T21:33:21.410Z,2.85
2019-06-26T21:35:53.127Z,3.30
2019-06-26T21:38:24.833Z,3.25
2019-06-26T21:40:56.565Z,3.20
2019-06-26T21:43:28.254Z,3.98
2019-06-26T21:45:59.979Z,3.75
2019-06-26T21:48:31.684Z,5.05
2019-06-26T21:51:03.408Z,4.55
2019-06-26T21:53:35.261Z,4.58
2019-06-26T21:56:07.629Z,3.12
2019-06-26T21:58:39.371Z,3.10
2019-06-26T22:01:11.286Z,2.87
2019-06-26T22:03:42.992Z,3.08
2019-06-26T22:06:14.822Z,3.00
2019-06-26T22:08:46.618Z,3.02
2019-06-26T22:11:18.326Z,3.00
2019-06-26T22:13:50.020Z,3.08
2019-06-26T22:16:21.959Z,3.85
2019-06-26T22:18:53.660Z,3.60
2019-06-26T22:21:25.473Z,3.08
2019-06-26T22:23:57.185Z,3.02
2019-06-26T22:26:29.101Z,3.33
2019-06-26T22:29:01.029Z,3.42
2019-06-26T22:31:32.856Z,4.05
2019-06-26T22:34:04.578Z,3.70
2019-06-26T22:36:36.410Z,3.95
2019-06-26T22:39:08.289Z,3.85
2019-06-26T22:41:40.324Z,3.80
2019-06-26T22:44:12.023Z,4.05
2019-06-26T22:46:43.760Z,4.60
2019-06-26T22:49:15.567Z,3.98
2019-06-26T22:51:47.531Z,4.03
2019-06-26T22:54:19.970Z,4.33
2019-06-26T22:56:51.957Z,5.13
2019-06-26T22:59:23.657Z,4.67
2019-06-26T23:01:55.395Z,5.22
2019-06-26T23:04:27.187Z,4.58
2019-06-26T23:06:58.904Z,4.62
2019-06-26T23:09:30.649Z,4.85
2019-06-26T23:12:02.635Z,5.00
2019-06-26T23:14:34.542Z,5.37
2019-06-26T23:17:06.364Z,5.37
2019-06-26T23:19:38.171Z,6.75
2019-06-26T23:22:09.893Z,5.70
2019-06-26T23:24:41.637Z,6.30
2019-06-26T23:27:13.448Z,5.70
2019-06-26T23:29:45.141Z,5.60
2019-06-26T23:32:16.879Z,6.83
2019-06-26T23:34:48.617Z,5.67
2019-06-26T23:37:20.371Z,6.17
2019-06-26T23:39:52.098Z,6.93
2019-06-26T23:42:23.883Z,6.37
2019-06-26T23:44:55.577Z,6.27
2019-06-26T23:47:27.301Z,7.30
2019-06-26T23:49:59.044Z,6.83
2019-06-26T23:52:30.766Z,6.60
2019-06-26T23:55:02.716Z,7.67
2019-06-26T23:57:34.435Z,7.07
